createdAt,value
2018-12-10T00:00:28.856Z,998.10
2018-12-10T00:01:28.845Z,998.10
2018-12-10T00:02:28.826Z,998.11
2018-12-10T00:03:28.814Z,998.16
2018-12-10T00:04:28.803Z,998.13
2018-12-10T00:05:28.791Z,998.15
2018-12-10T00:06:28.783Z,998.21
2018-12-10T00:07:28.769Z,998.19
2018-12-10T00:08:28.759Z,998.24
2018-12-10T00:09:28.749Z,998.19
2018-12-10T00:10:28.735Z,998.22
2018-12-10T00:11:28.724Z,998.22
2018-12-10T00:12:28.714Z,998.18
2018-12-10T00:13:28.700Z,998.28
2018-12-10T00:14:28.690Z,998.25
2018-12-10T00:15:28.680Z,998.36
2018-12-10T00:16:28.671Z,998.27
2018-12-10T00:17:28.656Z,998.30
2018-12-10T00:18:28.644Z,998.33
2018-12-10T00:19:28.632Z,998.30
2018-12-10T00:20:28.621Z,998.32
2018-12-10T00:21:28.615Z,998.38
2018-12-10T00:22:28.608Z,998.40
2018-12-10T00:23:28.590Z,998.38
2018-12-10T00:24:28.577Z,998.47
2018-12-10T00:25:28.566Z,998.39
2018-12-10T00:26:28.558Z,998.52
2018-12-10T00:27:28.546Z,998.48
2018-12-10T00:28:28.534Z,998.51
2018-12-10T00:29:28.523Z,998.58
2018-12-10T00:30:28.514Z,998.57
2018-12-10T00:31:28.506Z,998.56
2018-12-10T00:32:28.489Z,998.58
2018-12-10T00:33:28.475Z,998.65
2018-12-10T00:34:28.469Z,998.63
2018-12-10T00:35:28.456Z,998.65
2018-12-10T00:36:28.444Z,998.64
2018-12-10T00:37:28.429Z,998.66
2018-12-10T00:38:28.422Z,998.75
2018-12-10T00:39:28.408Z,998.70
2018-12-10T00:40:28.401Z,998.73
2018-12-10T00:41:28.384Z,998.75
2018-12-10T00:42:28.378Z,998.76
2018-12-10T00:43:28.367Z,998.81
2018-12-10T00:44:28.360Z,998.87
2018-12-10T00:45:28.348Z,998.94
2018-12-10T00:46:28.333Z,998.93
2018-12-10T00:47:28.317Z,998.95
2018-12-10T00:48:28.305Z,998.94
2018-12-10T00:49:28.293Z,998.92
2018-12-10T00:50:28.284Z,998.93
2018-12-10T00:51:28.272Z,999.00
2018-12-10T00:52:28.261Z,998.96
2018-12-10T00:53:28.249Z,999.12
2018-12-10T00:54:28.239Z,999.02
2018-12-10T00:55:28.228Z,999.13
2018-12-10T00:56:28.224Z,999.10
2018-12-10T00:57:28.205Z,999.16
2018-12-10T00:58:28.193Z,999.19
2018-12-10T00:59:28.182Z,999.14
2018-12-10T01:00:28.176Z,999.21
2018-12-10T01:01:28.159Z,999.15
2018-12-10T01:02:28.151Z,999.27
2018-12-10T01:03:28.138Z,999.27
2018-12-10T01:04:28.179Z,999.34
2018-12-10T01:05:28.116Z,999.34
2018-12-10T01:06:28.102Z,999.34
2018-12-10T01:07:28.094Z,999.24
2018-12-10T01:08:28.082Z,999.29
2018-12-10T01:09:28.071Z,999.40
2018-12-10T01:10:28.059Z,999.40
2018-12-10T01:11:28.064Z,999.39
2018-12-10T01:12:28.069Z,999.41
2018-12-10T01:13:28.075Z,999.38
2018-12-10T01:14:28.019Z,999.35
2018-12-10T01:15:28.016Z,999.38
2018-12-10T01:16:28.017Z,999.39
2018-12-10T01:17:28.021Z,999.40
2018-12-10T01:18:27.969Z,999.43
2018-12-10T01:19:27.960Z,999.41
2018-12-10T01:20:27.954Z,999.45
2018-12-10T01:21:27.935Z,999.41
2018-12-10T01:22:27.922Z,999.52
2018-12-10T01:23:27.911Z,999.47
2018-12-10T01:24:27.905Z,999.46
2018-12-10T01:25:27.888Z,999.63
2018-12-10T01:26:27.882Z,999.59
2018-12-10T01:27:27.867Z,999.58
2018-12-10T01:28:27.857Z,999.57
2018-12-10T01:29:27.842Z,999.61
2018-12-10T01:30:27.838Z,999.57
2018-12-10T01:31:27.823Z,999.61
2018-12-10T01:32:27.810Z,999.70
2018-12-10T01:33:27.803Z,999.65
2018-12-10T01:34:27.789Z,999.66
2018-12-10T01:35:27.784Z,999.73
2018-12-10T01:36:27.770Z,999.75
2018-12-10T01:37:27.752Z,999.80
2018-12-10T01:38:27.742Z,999.83
2018-12-10T01:39:27.730Z,999.86
2018-12-10T01:40:27.718Z,999.85
2018-12-10T01:41:27.709Z,999.86
2018-12-10T01:42:27.696Z,999.86
2018-12-10T01:43:27.685Z,999.88
2018-12-10T01:44:27.679Z,999.85
2018-12-10T01:45:27.670Z,999.88
2018-12-10T01:46:27.654Z,999.94
2018-12-10T01:47:27.649Z,999.92
2018-12-10T01:48:27.628Z,999.97
2018-12-10T01:49:27.623Z,999.95
2018-12-10T01:50:27.606Z,999.99
2018-12-10T01:51:27.595Z,1000.02
2018-12-10T01:52:27.587Z,1000.01
2018-12-10T01:53:27.579Z,1000.03
2018-12-10T01:54:27.565Z,1000.03
2018-12-10T01:55:27.551Z,1000.06
2018-12-10T01:56:27.539Z,1000.12
2018-12-10T01:57:27.527Z,1000.18
2018-12-10T01:58:27.623Z,1000.07
2018-12-10T01:59:27.505Z,1000.09
2018-12-10T02:00:27.496Z,1000.06
2018-12-10T02:01:27.484Z,1000.07
2018-12-10T02:02:27.476Z,1000.10
2018-12-10T02:03:27.461Z,1000.18
2018-12-10T02:04:27.453Z,1000.17
2018-12-10T02:05:27.440Z,1000.14
2018-12-10T02:06:27.428Z,1000.21
2018-12-10T02:07:27.421Z,1000.22
2018-12-10T02:08:27.404Z,1000.17
2018-12-10T02:09:27.394Z,1000.22
2018-12-10T02:10:27.382Z,1000.18
2018-12-10T02:11:27.371Z,1000.15
2018-12-10T02:12:27.361Z,1000.29
2018-12-10T02:13:27.355Z,1000.21
2018-12-10T02:14:27.342Z,1000.20
2018-12-10T02:15:27.330Z,1000.26
2018-12-10T02:16:27.313Z,1000.26
2018-12-10T02:17:27.306Z,1000.30
2018-12-10T02:18:27.299Z,1000.35
2018-12-10T02:19:27.278Z,1000.39
2018-12-10T02:20:27.271Z,1000.35
2018-12-10T02:21:27.368Z,1000.38
2018-12-10T02:22:27.245Z,1000.40
2018-12-10T02:23:27.239Z,1000.34
2018-12-10T02:24:27.222Z,1000.33
2018-12-10T02:25:27.223Z,1000.35
2018-12-10T02:26:27.201Z,1000.36
2018-12-10T02:27:27.187Z,1000.31
2018-12-10T02:28:27.178Z,1000.41
2018-12-10T02:29:27.166Z,1000.33
2018-12-10T02:30:27.156Z,1000.32
2018-12-10T02:31:27.145Z,1000.38
2018-12-10T02:32:27.134Z,1000.31
2018-12-10T02:33:27.124Z,1000.40
2018-12-10T02:34:27.114Z,1000.42
2018-12-10T02:35:27.099Z,1000.43
2018-12-10T02:36:27.088Z,1000.38
2018-12-10T02:37:27.084Z,1000.43
2018-12-10T02:38:27.075Z,1000.37
2018-12-10T02:39:27.056Z,1000.49
2018-12-10T02:40:27.053Z,1000.42
2018-12-10T02:41:27.033Z,1000.47
2018-12-10T02:42:27.023Z,1000.46
2018-12-10T02:43:27.017Z,1000.52
2018-12-10T02:44:27.002Z,1000.55
2018-12-10T02:45:27.090Z,1000.50
2018-12-10T02:46:26.975Z,1000.53
2018-12-10T02:47:26.970Z,1000.55
2018-12-10T02:48:26.955Z,1000.67
2018-12-10T02:49:26.945Z,1000.53
2018-12-10T02:50:26.940Z,1000.76
2018-12-10T02:51:26.919Z,1000.67
2018-12-10T02:52:26.907Z,1000.66
2018-12-10T02:53:26.898Z,1000.72
2018-12-10T02:54:26.885Z,1000.70
2018-12-10T02:55:26.876Z,1000.70
2018-12-10T02:56:26.864Z,1000.76
2018-12-10T02:57:26.853Z,1000.72
2018-12-10T02:58:26.850Z,1000.79
2018-12-10T02:59:26.832Z,1000.74
2018-12-10T03:00:26.821Z,1000.68
2018-12-10T03:01:26.812Z,1000.73
2018-12-10T03:02:26.801Z,1000.78
2018-12-10T03:03:26.793Z,1000.76
2018-12-10T03:04:26.777Z,1000.77
2018-12-10T03:05:26.766Z,1000.70
2018-12-10T03:06:26.757Z,1000.70
2018-12-10T03:07:26.750Z,1000.75
2018-12-10T03:08:26.732Z,1000.67
2018-12-10T03:09:26.722Z,1000.70
2018-12-10T03:10:26.712Z,1000.73
2018-12-10T03:11:26.703Z,1000.74
2018-12-10T03:12:26.686Z,1000.66
2018-12-10T03:13:26.673Z,1000.69
2018-12-10T03:14:26.670Z,1000.72
2018-12-10T03:15:26.654Z,1000.76
2018-12-10T03:16:26.641Z,1000.80
2018-12-10T03:17:26.637Z,1000.84
2018-12-10T03:18:26.627Z,1000.79
2018-12-10T03:19:26.607Z,1000.80
2018-12-10T03:20:26.601Z,1000.80
2018-12-10T03:21:26.588Z,1000.81
2018-12-10T03:22:26.580Z,1000.96
2018-12-10T03:23:26.565Z,1000.88
2018-12-10T03:24:26.552Z,1000.91
2018-12-10T03:25:26.542Z,1000.94
2018-12-10T03:26:26.535Z,1000.96
2018-12-10T03:27:26.520Z,1001.01
2018-12-10T03:28:26.513Z,1000.90
2018-12-10T03:29:26.499Z,1001.00
2018-12-10T03:30:26.492Z,1001.03
2018-12-10T03:31:26.479Z,1000.95
2018-12-10T03:32:26.471Z,1000.98
2018-12-10T03:33:26.454Z,1001.01
2018-12-10T03:34:26.442Z,1001.04
2018-12-10T03:35:26.429Z,1001.06
2018-12-10T03:36:26.424Z,1001.10
2018-12-10T03:37:26.408Z,1001.10
2018-12-10T03:38:26.396Z,1001.13
2018-12-10T03:39:26.388Z,1001.08
2018-12-10T03:40:26.375Z,1001.09
2018-12-10T03:41:26.369Z,1001.15
2018-12-10T03:42:26.357Z,1001.22
2018-12-10T03:43:26.349Z,1001.20
2018-12-10T03:44:26.335Z,1001.23
2018-12-10T03:45:26.323Z,1001.23
2018-12-10T03:46:26.309Z,1001.25
2018-12-10T03:47:26.295Z,1001.27
2018-12-10T03:48:26.285Z,1001.27
2018-12-10T03:49:26.274Z,1001.31
2018-12-10T03:50:26.273Z,1001.37
2018-12-10T03:51:26.250Z,1001.30
2018-12-10T03:52:26.241Z,1001.31
2018-12-10T03:53:26.231Z,1001.38
2018-12-10T03:54:26.220Z,1001.39
2018-12-10T03:55:26.210Z,1001.33
2018-12-10T03:56:26.198Z,1001.37
2018-12-10T03:57:26.195Z,1001.48
2018-12-10T03:58:26.177Z,1001.44
2018-12-10T03:59:26.163Z,1001.42
2018-12-10T04:00:26.151Z,1001.47
2018-12-10T04:01:26.139Z,1001.55
2018-12-10T04:02:26.131Z,1001.53
2018-12-10T04:03:26.117Z,1001.53
2018-12-10T04:04:26.107Z,1001.62
2018-12-10T04:05:26.100Z,1001.60
2018-12-10T04:06:26.086Z,1001.61
2018-12-10T04:07:26.080Z,1001.72
2018-12-10T04:08:26.069Z,1001.61
2018-12-10T04:09:26.051Z,1001.70
2018-12-10T04:10:26.040Z,1001.60
2018-12-10T04:11:26.041Z,1001.57
2018-12-10T04:12:26.025Z,1001.74
2018-12-10T04:13:26.007Z,1001.65
2018-12-10T04:14:25.997Z,1001.76
2018-12-10T04:15:25.989Z,1001.79
2018-12-10T04:16:25.974Z,1001.77
2018-12-10T04:17:25.963Z,1001.84
2018-12-10T04:18:25.959Z,1001.78
2018-12-10T04:19:25.944Z,1001.79
2018-12-10T04:20:25.931Z,1001.85
2018-12-10T04:21:25.925Z,1001.89
2018-12-10T04:22:25.913Z,1001.83
2018-12-10T04:23:25.896Z,1001.77
2018-12-10T04:24:25.888Z,1001.83
2018-12-10T04:25:25.874Z,1001.82
2018-12-10T04:26:25.866Z,1001.82
2018-12-10T04:27:25.857Z,1001.80
2018-12-10T04:28:25.841Z,1001.82
2018-12-10T04:29:25.832Z,1001.87
2018-12-10T04:30:25.818Z,1001.87
2018-12-10T04:31:25.815Z,1001.89
2018-12-10T04:32:25.798Z,1001.89
2018-12-10T04:33:25.790Z,1001.90
2018-12-10T04:34:25.774Z,1001.93
2018-12-10T04:35:25.764Z,1001.96
2018-12-10T04:36:25.755Z,1001.92
2018-12-10T04:37:25.749Z,1001.96
2018-12-10T04:38:25.735Z,1002.01
2018-12-10T04:39:25.724Z,1001.98
2018-12-10T04:40:25.708Z,1002.01
2018-12-10T04:41:25.698Z,1002.03
2018-12-10T04:42:25.686Z,1001.98
2018-12-10T04:43:25.680Z,1002.02
2018-12-10T04:44:25.668Z,1002.09
2018-12-10T04:45:25.685Z,1002.02
2018-12-10T04:46:25.643Z,1002.12
2018-12-10T04:47:25.634Z,1002.09
2018-12-10T04:48:25.619Z,1002.08
2018-12-10T04:49:25.615Z,1002.11
2018-12-10T04:50:25.598Z,1002.15
2018-12-10T04:51:25.588Z,1002.18
2018-12-10T04:52:25.575Z,1002.16
2018-12-10T04:53:25.566Z,1002.14
2018-12-10T04:54:25.558Z,1002.20
2018-12-10T04:55:25.543Z,1002.08
2018-12-10T04:56:25.533Z,1002.08
2018-12-10T04:57:25.522Z,1002.18
2018-12-10T04:58:25.509Z,1002.21
2018-12-10T04:59:25.499Z,1002.16
2018-12-10T05:00:25.488Z,1002.18
2018-12-10T05:01:25.484Z,1002.23
2018-12-10T05:02:25.465Z,1002.27
2018-12-10T05:03:25.457Z,1002.26
2018-12-10T05:04:25.447Z,1002.30
2018-12-10T05:05:25.434Z,1002.31
2018-12-10T05:06:25.422Z,1002.34
2018-12-10T05:07:25.411Z,1002.33
2018-12-10T05:08:25.399Z,1002.36
2018-12-10T05:09:25.396Z,1002.40
2018-12-10T05:10:25.380Z,1002.35
2018-12-10T05:11:25.368Z,1002.42
2018-12-10T05:12:25.358Z,1002.51
2018-12-10T05:13:25.346Z,1002.38
2018-12-10T05:14:25.333Z,1002.44
2018-12-10T05:15:25.325Z,1002.45
2018-12-10T05:16:25.313Z,1002.48
2018-12-10T05:17:25.300Z,1002.50
2018-12-10T05:18:25.291Z,1002.49
2018-12-10T05:19:25.283Z,1002.48
2018-12-10T05:20:25.268Z,1002.63
2018-12-10T05:21:25.256Z,1002.59
2018-12-10T05:22:25.245Z,1002.63
2018-12-10T05:23:25.239Z,1002.61
2018-12-10T05:24:25.224Z,1002.63
2018-12-10T05:25:25.212Z,1002.66
2018-12-10T05:26:25.202Z,1002.69
2018-12-10T05:27:25.190Z,1002.64
2018-12-10T05:28:25.180Z,1002.70
2018-12-10T05:29:25.170Z,1002.62
2018-12-10T05:30:25.162Z,1002.69
2018-12-10T05:31:25.152Z,1002.66
2018-12-10T05:32:25.135Z,1002.70
2018-12-10T05:33:25.123Z,1002.67
2018-12-10T05:34:25.115Z,1002.68
2018-12-10T05:35:25.103Z,1002.73
2018-12-10T05:36:25.110Z,1002.71
2018-12-10T05:37:25.081Z,1002.66
2018-12-10T05:38:25.071Z,1002.68
2018-12-10T05:39:25.063Z,1002.80
2018-12-10T05:40:25.050Z,1002.71
2018-12-10T05:41:25.036Z,1002.79
2018-12-10T05:42:25.027Z,1002.80
2018-12-10T05:43:25.020Z,1002.73
2018-12-10T05:44:25.013Z,1002.78
2018-12-10T05:45:24.992Z,1002.79
2018-12-10T05:46:24.980Z,1002.79
2018-12-10T05:47:24.970Z,1002.85
2018-12-10T05:48:24.962Z,1002.86
2018-12-10T05:49:24.947Z,1002.88
2018-12-10T05:50:24.937Z,1002.90
2018-12-10T05:51:24.925Z,1002.88
2018-12-10T05:52:24.916Z,1002.93
2018-12-10T05:53:24.908Z,1002.88
2018-12-10T05:54:24.899Z,1002.94
2018-12-10T05:55:24.882Z,1002.94
2018-12-10T05:56:24.879Z,1002.98
2018-12-10T05:57:24.861Z,1003.05
2018-12-10T05:58:24.848Z,1002.95
2018-12-10T05:59:24.839Z,1003.09
2018-12-10T06:00:24.831Z,1002.97
2018-12-10T06:01:24.815Z,1002.95
2018-12-10T06:02:24.803Z,1003.02
2018-12-10T06:03:24.794Z,1002.96
2018-12-10T06:04:24.780Z,1003.01
2018-12-10T06:05:24.771Z,1002.94
2018-12-10T06:06:24.760Z,1003.04
2018-12-10T06:07:24.746Z,1003.03
2018-12-10T06:08:24.737Z,1003.02
2018-12-10T06:09:24.726Z,1003.01
2018-12-10T06:10:24.715Z,1003.00
2018-12-10T06:11:24.704Z,1003.01
2018-12-10T06:12:24.692Z,1002.99
2018-12-10T06:13:24.681Z,1003.01
2018-12-10T06:14:24.673Z,1003.12
2018-12-10T06:15:24.659Z,1003.06
2018-12-10T06:16:24.650Z,1003.07
2018-12-10T06:17:24.641Z,1003.15
2018-12-10T06:18:24.631Z,1003.15
2018-12-10T06:19:24.618Z,1003.15
2018-12-10T06:20:24.602Z,1003.22
2018-12-10T06:21:24.593Z,1003.19
2018-12-10T06:22:24.583Z,1003.12
2018-12-10T06:23:24.570Z,1003.16
2018-12-10T06:24:24.577Z,1003.21
2018-12-10T06:25:24.553Z,1003.34
2018-12-10T06:26:24.538Z,1003.24
2018-12-10T06:27:24.531Z,1003.28
2018-12-10T06:28:24.515Z,1003.29
2018-12-10T06:30:24.497Z,1003.35
2018-12-10T06:31:24.490Z,1003.32
2018-12-10T06:32:24.475Z,1003.39
2018-12-10T06:33:24.461Z,1003.53
2018-12-10T06:34:24.448Z,1003.37
2018-12-10T06:35:24.439Z,1003.41
2018-12-10T06:36:24.427Z,1003.44
2018-12-10T06:37:24.423Z,1003.36
2018-12-10T06:38:24.405Z,1003.45
2018-12-10T06:39:24.401Z,1003.50
2018-12-10T06:40:24.400Z,1003.48
2018-12-10T06:41:24.371Z,1003.52
2018-12-10T06:42:24.363Z,1003.51
2018-12-10T06:43:24.350Z,1003.64
2018-12-10T06:44:24.338Z,1003.51
2018-12-10T06:45:24.333Z,1003.48
2018-12-10T06:46:24.318Z,1003.49
2018-12-10T06:47:24.306Z,1003.63
2018-12-10T06:48:24.294Z,1003.70
2018-12-10T06:49:24.284Z,1003.63
2018-12-10T06:50:24.272Z,1003.68
2018-12-10T06:51:24.262Z,1003.73
2018-12-10T06:52:24.255Z,1003.73
2018-12-10T06:53:24.244Z,1003.81
2018-12-10T06:54:24.226Z,1003.78
2018-12-10T06:55:24.228Z,1003.87
2018-12-10T06:56:24.218Z,1003.93
2018-12-10T06:57:24.224Z,1003.94
2018-12-10T06:58:24.226Z,1003.99
2018-12-10T06:59:24.175Z,1003.96
2018-12-10T07:00:24.173Z,1003.94
2018-12-10T07:01:24.173Z,1003.95
2018-12-10T07:02:24.177Z,1003.96
2018-12-10T07:03:24.180Z,1004.00
2018-12-10T07:04:24.118Z,1004.05
2018-12-10T07:05:24.105Z,1003.84
2018-12-10T07:06:24.101Z,1003.93
2018-12-10T07:07:24.086Z,1003.96
2018-12-10T07:08:24.074Z,1003.94
2018-12-10T07:09:24.070Z,1004.00
2018-12-10T07:10:24.059Z,1004.03
2018-12-10T07:11:24.040Z,1003.93
2018-12-10T07:12:24.037Z,1004.00
2018-12-10T07:13:24.019Z,1003.95
2018-12-10T07:14:24.007Z,1003.96
2018-12-10T07:15:23.997Z,1004.02
2018-12-10T07:16:23.987Z,1004.00
2018-12-10T07:17:23.975Z,1004.03
2018-12-10T07:18:23.964Z,1003.95
2018-12-10T07:19:23.962Z,1003.97
2018-12-10T07:20:23.943Z,1004.02
2018-12-10T07:21:23.932Z,1004.07
2018-12-10T07:22:23.921Z,1004.05
2018-12-10T07:23:23.913Z,1003.98
2018-12-10T07:24:23.897Z,1004.03
2018-12-10T07:25:23.885Z,1004.05
2018-12-10T07:26:23.878Z,1004.06
2018-12-10T07:27:23.869Z,1004.11
2018-12-10T07:28:23.857Z,1004.11
2018-12-10T07:29:23.845Z,1004.15
2018-12-10T07:30:23.839Z,1004.14
2018-12-10T07:31:23.823Z,1004.14
2018-12-10T07:32:23.808Z,1004.07
2018-12-10T07:33:23.797Z,1004.14
2018-12-10T07:34:23.789Z,1004.17
2018-12-10T07:35:23.775Z,1004.17
2018-12-10T07:36:23.764Z,1004.16
2018-12-10T07:37:23.755Z,1004.19
2018-12-10T07:38:23.743Z,1004.15
2018-12-10T07:39:23.731Z,1004.18
2018-12-10T07:40:23.719Z,1004.21
2018-12-10T07:41:23.711Z,1004.28
2018-12-10T07:42:23.698Z,1004.16
2018-12-10T07:43:23.689Z,1004.21
2018-12-10T07:44:23.676Z,1004.23
2018-12-10T07:45:23.665Z,1004.19
2018-12-10T07:46:23.655Z,1004.20
2018-12-10T07:47:23.649Z,1004.21
2018-12-10T07:48:23.632Z,1004.24
2018-12-10T07:49:23.625Z,1004.23
2018-12-10T07:50:23.611Z,1004.21
2018-12-10T07:51:23.601Z,1004.30
2018-12-10T07:52:23.587Z,1004.30
2018-12-10T07:53:23.577Z,1004.27
2018-12-10T07:54:23.564Z,1004.29
2018-12-10T07:55:23.564Z,1004.33
2018-12-10T07:56:29.012Z,1004.37
2018-12-10T07:57:23.530Z,1004.39
2018-12-10T07:58:23.521Z,1004.33
2018-12-10T07:59:23.509Z,1004.33
2018-12-10T08:00:23.498Z,1004.35
2018-12-10T08:01:23.489Z,1004.33
2018-12-10T08:02:23.483Z,1004.32
2018-12-10T08:03:23.468Z,1004.35
2018-12-10T08:04:23.455Z,1004.38
2018-12-10T08:05:23.445Z,1004.41
2018-12-10T08:06:23.436Z,1004.34
2018-12-10T08:07:23.427Z,1004.38
2018-12-10T08:08:23.409Z,1004.34
2018-12-10T08:09:23.399Z,1004.35
2018-12-10T08:10:23.394Z,1004.40
2018-12-10T08:11:23.379Z,1004.41
2018-12-10T08:12:23.368Z,1004.35
2018-12-10T08:13:23.357Z,1004.37
2018-12-10T08:14:23.345Z,1004.46
2018-12-10T08:15:23.334Z,1004.51
2018-12-10T08:16:23.320Z,1004.46
2018-12-10T08:17:23.311Z,1004.46
2018-12-10T08:18:23.297Z,1004.44
2018-12-10T08:19:23.294Z,1004.40
2018-12-10T08:20:23.280Z,1004.47
2018-12-10T08:21:23.270Z,1004.53
2018-12-10T08:22:23.253Z,1004.44
2018-12-10T08:23:23.355Z,1004.57
2018-12-10T08:24:23.230Z,1004.56
2018-12-10T08:25:23.402Z,1004.60
2018-12-10T08:26:23.209Z,1004.60
2018-12-10T08:27:23.197Z,1004.52
2018-12-10T08:28:23.188Z,1004.60
2018-12-10T08:29:23.174Z,1004.66
2018-12-10T08:30:23.168Z,1004.53
2018-12-10T08:31:23.152Z,1004.54
2018-12-10T08:32:23.147Z,1004.53
2018-12-10T08:33:23.132Z,1004.52
2018-12-10T08:34:23.130Z,1004.57
2018-12-10T08:35:23.119Z,1004.43
2018-12-10T08:36:23.102Z,1004.59
2018-12-10T08:37:23.085Z,1004.50
2018-12-10T08:38:23.080Z,1004.47
2018-12-10T08:39:23.064Z,1004.52
2018-12-10T08:40:23.091Z,1004.57
2018-12-10T08:41:23.040Z,1004.61
2018-12-10T08:42:23.028Z,1004.57
2018-12-10T08:43:23.020Z,1004.62
2018-12-10T08:44:23.011Z,1004.56
2018-12-10T08:45:22.997Z,1004.53
2018-12-10T08:46:22.985Z,1004.56
2018-12-10T08:47:22.981Z,1004.70
2018-12-10T08:48:22.963Z,1004.66
2018-12-10T08:49:22.950Z,1004.61
2018-12-10T08:50:22.941Z,1004.64
2018-12-10T08:51:22.935Z,1004.66
2018-12-10T08:52:22.922Z,1004.65
2018-12-10T08:53:22.917Z,1004.61
2018-12-10T08:54:22.893Z,1004.76
2018-12-10T08:55:22.887Z,1004.64
2018-12-10T08:56:22.871Z,1004.66
2018-12-10T08:57:22.861Z,1004.61
2018-12-10T08:58:22.851Z,1004.68
2018-12-10T08:59:22.836Z,1004.66
2018-12-10T09:00:22.838Z,1004.72
2018-12-10T09:01:22.814Z,1004.64
2018-12-10T09:02:22.808Z,1004.71
2018-12-10T09:03:22.795Z,1004.67
2018-12-10T09:04:22.781Z,1004.67
2018-12-10T09:05:22.769Z,1004.66
2018-12-10T09:06:22.762Z,1004.63
2018-12-10T09:07:22.752Z,1004.65
2018-12-10T09:08:22.736Z,1004.73
2018-12-10T09:09:22.726Z,1004.73
2018-12-10T09:10:22.718Z,1004.81
2018-12-10T09:11:22.701Z,1004.84
2018-12-10T09:12:22.690Z,1004.84
2018-12-10T09:13:22.679Z,1004.83
2018-12-10T09:14:22.682Z,1004.83
2018-12-10T09:16:22.652Z,1004.78
2018-12-10T09:17:22.634Z,1004.87
2018-12-10T09:18:22.624Z,1004.89
2018-12-10T09:19:22.612Z,1004.89
2018-12-10T09:20:22.611Z,1004.85
2018-12-10T09:21:22.592Z,1004.90
2018-12-10T09:22:22.639Z,1004.89
2018-12-10T09:23:22.577Z,1004.88
2018-12-10T09:24:22.567Z,1004.89
2018-12-10T09:25:24.723Z,1004.97
2018-12-10T09:26:22.533Z,1004.95
2018-12-10T09:27:22.523Z,1004.98
2018-12-10T09:28:22.518Z,1004.93
2018-12-10T09:29:22.507Z,1005.03
2018-12-10T09:30:22.489Z,1004.90
2018-12-10T09:31:22.487Z,1004.90
2018-12-10T09:32:22.473Z,1004.96
2018-12-10T09:33:23.659Z,1005.04
2018-12-10T09:34:22.447Z,1005.03
2018-12-10T09:35:22.434Z,1005.01
2018-12-10T09:36:22.427Z,1005.00
2018-12-10T09:37:22.413Z,1004.95
2018-12-10T09:38:22.402Z,1004.98
2018-12-10T09:39:22.392Z,1004.98
2018-12-10T09:40:22.379Z,1005.09
2018-12-10T09:41:22.373Z,1005.09
2018-12-10T09:42:22.358Z,1005.00
2018-12-10T09:43:22.346Z,1005.00
2018-12-10T09:44:22.336Z,1004.98
2018-12-10T09:45:22.325Z,1005.04
2018-12-10T09:46:27.449Z,1005.05
2018-12-10T09:47:22.305Z,1005.07
2018-12-10T09:48:22.296Z,1005.00
2018-12-10T09:49:22.283Z,1005.03
2018-12-10T09:50:22.270Z,1004.99
2018-12-10T09:51:22.260Z,1005.09
2018-12-10T09:52:22.251Z,1005.08
2018-12-10T09:53:22.241Z,1005.05
2018-12-10T09:54:22.235Z,1005.18
2018-12-10T09:55:22.218Z,1005.16
2018-12-10T09:56:22.206Z,1005.18
2018-12-10T09:57:22.198Z,1005.10
2018-12-10T09:58:22.184Z,1005.25
2018-12-10T09:59:22.183Z,1005.26
2018-12-10T10:00:22.163Z,1005.17
2018-12-10T10:01:22.154Z,1005.22
2018-12-10T10:02:22.146Z,1005.19
2018-12-10T10:03:22.130Z,1005.24
2018-12-10T10:04:22.117Z,1005.20
2018-12-10T10:05:22.106Z,1005.21
2018-12-10T10:06:22.097Z,1005.25
2018-12-10T10:07:28.353Z,1005.23
2018-12-10T10:08:46.555Z,1005.22
2018-12-10T10:09:46.543Z,1005.27
2018-12-10T10:10:46.540Z,1005.31
2018-12-10T10:11:46.522Z,1005.34
2018-12-10T10:12:46.509Z,1005.30
2018-12-10T10:13:46.499Z,1005.32
2018-12-10T10:14:46.594Z,1005.31
2018-12-10T10:15:46.477Z,1005.35
2018-12-10T10:16:46.470Z,1005.28
2018-12-10T10:17:46.456Z,1005.39
2018-12-10T10:18:46.446Z,1005.45
2018-12-10T10:19:46.434Z,1005.44
2018-12-10T10:20:46.421Z,1005.35
2018-12-10T10:21:46.412Z,1005.40
2018-12-10T10:22:46.400Z,1005.32
2018-12-10T10:23:46.387Z,1005.39
2018-12-10T10:24:46.380Z,1005.43
2018-12-10T10:25:46.365Z,1005.31
2018-12-10T10:26:46.353Z,1005.33
2018-12-10T10:27:46.344Z,1005.42
2018-12-10T10:28:46.331Z,1005.34
2018-12-10T10:29:46.324Z,1005.42
2018-12-10T10:30:46.310Z,1005.35
2018-12-10T10:31:46.299Z,1005.48
2018-12-10T10:32:46.291Z,1005.35
2018-12-10T10:33:46.281Z,1005.37
2018-12-10T10:34:46.263Z,1005.42
2018-12-10T10:35:46.251Z,1005.46
2018-12-10T10:36:46.241Z,1005.44
2018-12-10T10:37:46.228Z,1005.43
2018-12-10T10:38:46.218Z,1005.45
2018-12-10T10:39:46.211Z,1005.30
2018-12-10T10:40:46.197Z,1005.44
2018-12-10T10:41:46.185Z,1005.39
2018-12-10T10:42:46.176Z,1005.45
2018-12-10T10:43:46.164Z,1005.43
2018-12-10T10:44:46.156Z,1005.40
2018-12-10T10:45:46.142Z,1005.35
2018-12-10T10:46:46.132Z,1005.45
2018-12-10T10:47:46.122Z,1005.44
2018-12-10T10:48:46.109Z,1005.40
2018-12-10T10:49:46.101Z,1005.44
2018-12-10T10:50:46.088Z,1005.52
2018-12-10T10:51:46.075Z,1005.45
2018-12-10T10:52:46.068Z,1005.42
2018-12-10T10:53:46.061Z,1005.43
2018-12-10T10:54:46.045Z,1005.43
2018-12-10T10:55:46.034Z,1005.43
2018-12-10T10:56:46.020Z,1005.34
2018-12-10T10:57:46.013Z,1005.39
2018-12-10T10:58:46.004Z,1005.40
2018-12-10T10:59:45.988Z,1005.46
2018-12-10T11:00:45.974Z,1005.41
2018-12-10T11:01:45.969Z,1005.35
2018-12-10T11:02:46.496Z,1005.35
2018-12-10T11:03:45.947Z,1005.40
2018-12-10T11:04:45.929Z,1005.42
2018-12-10T11:05:45.930Z,1005.42
2018-12-10T11:06:45.907Z,1005.44
2018-12-10T11:07:45.897Z,1005.50
2018-12-10T11:08:45.888Z,1005.37
2018-12-10T11:09:45.875Z,1005.39
2018-12-10T11:10:45.862Z,1005.45
2018-12-10T11:11:45.858Z,1005.38
2018-12-10T11:12:45.848Z,1005.43
2018-12-10T11:13:45.829Z,1005.45
2018-12-10T11:14:45.818Z,1005.37
2018-12-10T11:15:45.807Z,1005.32
2018-12-10T11:16:45.795Z,1005.35
2018-12-10T11:17:45.783Z,1005.38
2018-12-10T11:18:45.771Z,1005.29
2018-12-10T11:19:45.769Z,1005.40
2018-12-10T11:20:45.757Z,1005.39
2018-12-10T11:21:45.740Z,1005.29
2018-12-10T11:22:45.732Z,1005.33
2018-12-10T11:23:45.714Z,1005.39
2018-12-10T11:24:45.703Z,1005.45
2018-12-10T11:25:45.697Z,1005.43
2018-12-10T11:26:45.681Z,1005.39
2018-12-10T11:27:45.672Z,1005.30
2018-12-10T11:28:45.658Z,1005.46
2018-12-10T11:29:45.647Z,1005.34
2018-12-10T11:30:45.639Z,1005.35
2018-12-10T11:31:45.628Z,1005.44
2018-12-10T11:32:45.614Z,1005.52
2018-12-10T11:33:47.415Z,1005.46
2018-12-10T11:34:45.592Z,1005.44
2018-12-10T11:35:45.581Z,1005.47
2018-12-10T11:36:45.568Z,1005.45
2018-12-10T11:37:45.559Z,1005.36
2018-12-10T11:38:45.546Z,1005.40
2018-12-10T11:39:45.540Z,1005.40
2018-12-10T11:40:45.526Z,1005.43
2018-12-10T11:41:46.619Z,1005.47
2018-12-10T11:42:45.508Z,1005.43
2018-12-10T11:43:45.490Z,1005.44
2018-12-10T11:44:45.478Z,1005.46
2018-12-10T11:45:45.471Z,1005.47
2018-12-10T11:46:45.455Z,1005.42
2018-12-10T11:47:45.931Z,1005.45
2018-12-10T11:48:45.440Z,1005.44
2018-12-10T11:49:45.429Z,1005.38
2018-12-10T11:50:45.410Z,1005.43
2018-12-10T11:51:45.402Z,1005.43
2018-12-10T11:52:45.394Z,1005.38
2018-12-10T11:53:45.379Z,1005.43
2018-12-10T11:54:45.366Z,1005.42
2018-12-10T11:55:45.352Z,1005.43
2018-12-10T11:56:45.341Z,1005.41
2018-12-10T11:57:45.333Z,1005.45
2018-12-10T11:58:45.319Z,1005.50
2018-12-10T11:59:45.307Z,1005.44
2018-12-10T12:00:45.299Z,1005.51
2018-12-10T12:01:45.290Z,1005.41
2018-12-10T12:02:45.278Z,1005.44
2018-12-10T12:03:45.263Z,1005.52
2018-12-10T12:04:45.254Z,1005.49
2018-12-10T12:05:45.258Z,1005.44
2018-12-10T12:06:45.258Z,1005.50
2018-12-10T12:07:45.261Z,1005.50
2018-12-10T12:08:45.269Z,1005.44
2018-12-10T12:09:45.205Z,1005.49
2018-12-10T12:10:45.214Z,1005.45
2018-12-10T12:11:45.219Z,1005.48